Time;durP1;ratioP1;P1;durP2;ratioP2;P2;SDS_P1;SDS_P2;PMS_P1;PMS_P2;Temp;Humidity;BMP_temperature;BMP_pressure;BME280_temperature;BME280_humidity;BME280_pressure;Samples;Min_cycle;Max_cycle;Signal;HPM_P1;HPM_P2
2024/03/21 00:00:15;;;;;;;9.57;4.43;;;;;;;;;;6244378;28;20095;-80
2024/03/21 00:03:15;;;;;;;6.95;4.70;;;;;;;;;;6246519;28;20052;-80
2024/03/21 00:06:17;;;;;;;9.30;4.45;;;;;;;;;;6235521;28;21315;-79
2024/03/21 00:09:18;;;;;;;9.43;5.00;;;;;;;;;;6216848;28;20065;-79
2024/03/21 00:12:19;;;;;;;8.50;5.70;;;;;;;;;;6235522;28;20051;-79
2024/03/21 00:15:20;;;;;;;9.13;5.32;;;;;;;;;;6237409;28;20042;-80
2024/03/21 00:18:23;;;;;;;8.32;5.15;;;;;;;;;;6210928;28;20057;-79
2024/03/21 00:21:24;;;;;;;11.02;5.00;;;;;;;;;;6261431;28;20060;-79
2024/03/21 00:24:25;;;;;;;8.57;5.30;;;;;;;;;;6254533;28;20112;-79
2024/03/21 00:27:26;;;;;;;10.40;5.68;;;;;;;;;;6238617;28;20048;-80
2024/03/21 00:30:26;;;;;;;6.93;5.07;;;;;;;;;;6248631;28;20147;-79
2024/03/21 00:33:27;;;;;;;9.60;4.55;;;;;;;;;;6228106;28;21478;-80
2024/03/21 00:36:28;;;;;;;9.05;5.47;;;;;;;;;;6249688;28;21923;-79
2024/03/21 00:39:29;;;;;;;9.50;5.05;;;;;;;;;;6220328;28;20041;-79
2024/03/21 00:42:29;;;;;;;10.23;5.50;;;;;;;;;;6248213;28;20110;-78
2024/03/21 00:45:30;;;;;;;8.82;5.15;;;;;;;;;;6234123;28;20040;-79
2024/03/21 00:48:31;;;;;;;11.32;5.95;;;;;;;;;;6226779;28;20382;-79
2024/03/21 00:51:32;;;;;;;6.55;4.40;;;;;;;;;;6233434;28;20398;-79
2024/03/21 00:54:33;;;;;;;7.68;4.93;;;;;;;;;;6247885;28;20498;-79
2024/03/21 00:57:33;;;;;;;5.93;4.32;;;;;;;;;;6238140;28;21542;-79
2024/03/21 01:00:35;;;;;;;7.65;4.82;;;;;;;;;;6238917;28;20049;-79
2024/03/21 01:03:36;;;;;;;8.02;4.93;;;;;;;;;;6212302;28;20406;-79
2024/03/21 01:06:36;;;;;;;12.68;5.43;;;;;;;;;;6237165;28;20151;-79
2024/03/21 01:09:37;;;;;;;8.52;4.68;;;;;;;;;;6235908;28;20418;-79
2024/03/21 01:12:38;;;;;;;7.88;4.90;;;;;;;;;;6249649;28;20074;-79
2024/03/21 01:15:39;;;;;;;9.35;5.10;;;;;;;;;;6253648;28;20073;-79
2024/03/21 01:18:40;;;;;;;8.30;4.82;;;;;;;;;;6239407;28;20063;-79
2024/03/21 01:21:41;;;;;;;7.63;4.43;;;;;;;;;;6250097;28;20045;-79
2024/03/21 01:24:45;;;;;;;34.38;14.15;;;;;;;;;;6250625;28;20114;-79
2024/03/21 01:27:46;;;;;;;17.05;7.78;;;;;;;;;;6219786;28;20056;-79
2024/03/21 01:30:47;;;;;;;24.92;10.43;;;;;;;;;;6235271;28;20049;-79
2024/03/21 01:33:52;;;;;;;15.27;7.30;;;;;;;;;;6242758;28;20087;-79
2024/03/21 01:36:53;;;;;;;10.45;4.70;;;;;;;;;;6254129;28;20071;-79
2024/03/21 01:39:54;;;;;;;8.85;4.68;;;;;;;;;;6254307;28;20063;-79
2024/03/21 01:42:55;;;;;;;10.23;5.85;;;;;;;;;;6240534;28;20045;-79
2024/03/21 01:46:09;;;;;;;12.27;5.68;;;;;;;;;;6245809;28;20056;-79
2024/03/21 01:49:10;;;;;;;8.50;5.25;;;;;;;;;;6256038;28;20041;-79
2024/03/21 01:52:10;;;;;;;7.53;4.80;;;;;;;;;;6239998;28;20110;-79
2024/03/21 01:55:14;;;;;;;12.32;5.40;;;;;;;;;;6237029;28;20073;-79
2024/03/21 01:58:16;;;;;;;9.60;5.63;;;;;;;;;;6248461;28;20033;-79
2024/03/21 02:01:24;;;;;;;7.38;4.63;;;;;;;;;;6219793;28;20045;-78
2024/03/21 02:04:25;;;;;;;8.80;5.00;;;;;;;;;;6232502;28;20045;-79
2024/03/21 02:07:26;;;;;;;8.55;5.68;;;;;;;;;;6238685;28;20466;-79
2024/03/21 02:10:27;;;;;;;7.38;5.30;;;;;;;;;;6252654;28;20057;-79
2024/03/21 02:13:27;;;;;;;8.27;5.07;;;;;;;;;;6238417;28;20147;-79
2024/03/21 02:16:28;;;;;;;10.50;5.28;;;;;;;;;;6235640;28;20045;-79
2024/03/21 02:19:30;;;;;;;10.50;5.03;;;;;;;;;;6248315;28;20066;-79
2024/03/21 02:22:37;;;;;;;8.57;5.43;;;;;;;;;;6241209;28;20052;-79
2024/03/21 02:25:38;;;;;;;8.68;5.43;;;;;;;;;;6248226;28;20048;-79
2024/03/21 02:28:39;;;;;;;7.60;5.20;;;;;;;;;;6220753;28;20065;-79
2024/03/21 02:31:40;;;;;;;9.68;5.82;;;;;;;;;;6231389;28;20103;-79
2024/03/21 02:34:40;;;;;;;7.20;5.22;;;;;;;;;;6240327;28;20505;-79
2024/03/21 02:37:41;;;;;;;11.32;5.78;;;;;;;;;;6238712;28;20069;-79
2024/03/21 02:40:42;;;;;;;8.90;5.85;;;;;;;;;;6260657;28;20128;-79
2024/03/21 02:43:42;;;;;;;8.15;5.22;;;;;;;;;;6233431;28;20049;-79
2024/03/21 02:46:43;;;;;;;8.05;4.68;;;;;;;;;;6238197;28;20052;-79
2024/03/21 02:49:45;;;;;;;8.95;4.72;;;;;;;;;;6248200;28;20052;-79
2024/03/21 02:52:45;;;;;;;9.02;4.60;;;;;;;;;;6243519;28;20048;-79
2024/03/21 02:55:46;;;;;;;7.93;5.07;;;;;;;;;;6253799;28;20095;-79
2024/03/21 02:58:47;;;;;;;10.18;4.97;;;;;;;;;;6252759;28;20041;-79
2024/03/21 03:01:47;;;;;;;8.73;5.05;;;;;;;;;;6246107;28;20383;-79
2024/03/21 03:04:48;;;;;;;11.40;5.43;;;;;;;;;;6249774;28;20040;-79
2024/03/21 03:07:49;;;;;;;12.25;5.65;;;;;;;;;;6239447;28;20548;-79
2024/03/21 03:10:49;;;;;;;9.73;5.20;;;;;;;;;;6252636;28;20045;-79
2024/03/21 03:13:50;;;;;;;8.13;5.05;;;;;;;;;;6251427;28;20094;-79
2024/03/21 03:16:51;;;;;;;8.95;5.10;;;;;;;;;;6247203;28;20087;-78
2024/03/21 03:19:51;;;;;;;8.43;5.32;;;;;;;;;;6221571;28;20409;-79
2024/03/21 03:22:52;;;;;;;8.80;5.63;;;;;;;;;;6238051;28;20044;-78
2024/03/21 03:25:53;;;;;;;9.55;5.32;;;;;;;;;;6220208;28;20041;-78
2024/03/21 03:28:54;;;;;;;8.63;5.13;;;;;;;;;;6237762;28;20575;-79
2024/03/21 03:32:01;;;;;;;8.20;5.05;;;;;;;;;;6241870;28;20180;-78
2024/03/21 03:38:21;;;;;;;8.77;5.93;;;;;;;;;;6239161;28;20514;-79
2024/03/21 03:41:22;;;;;;;9.10;5.53;;;;;;;;;;6248980;28;20075;-79
2024/03/21 03:44:23;;;;;;;10.73;6.22;;;;;;;;;;6241468;28;20428;-79
2024/03/21 03:47:24;;;;;;;11.73;6.22;;;;;;;;;;6249444;28;20176;-79
2024/03/21 03:50:25;;;;;;;10.07;5.60;;;;;;;;;;6236917;28;20049;-79
2024/03/21 03:53:26;;;;;;;9.02;5.05;;;;;;;;;;6251087;28;20037;-79
2024/03/21 03:56:27;;;;;;;10.77;5.50;;;;;;;;;;6243112;28;20506;-79
2024/03/21 03:59:27;;;;;;;9.82;5.15;;;;;;;;;;6254922;28;20091;-79
2024/03/21 04:02:29;;;;;;;8.50;5.10;;;;;;;;;;6243249;28;20049;-79
2024/03/21 04:05:30;;;;;;;9.65;5.22;;;;;;;;;;6242561;28;20056;-79
2024/03/21 04:08:30;;;;;;;9.77;5.28;;;;;;;;;;6242592;28;20079;-79
2024/03/21 04:11:32;;;;;;;8.82;5.38;;;;;;;;;;6240387;28;20048;-79
2024/03/21 04:14:33;;;;;;;9.48;6.25;;;;;;;;;;6247965;28;20048;-80
2024/03/21 04:17:34;;;;;;;12.57;6.18;;;;;;;;;;6248314;28;25506;-79
2024/03/21 04:20:34;;;;;;;11.43;5.93;;;;;;;;;;6251907;28;20057;-79
2024/03/21 04:23:35;;;;;;;8.82;5.70;;;;;;;;;;6253387;28;20056;-79
2024/03/21 04:26:36;;;;;;;9.90;5.97;;;;;;;;;;6233886;28;20435;-79
2024/03/21 04:29:37;;;;;;;11.52;5.75;;;;;;;;;;6248001;28;20655;-79
2024/03/21 04:32:37;;;;;;;10.20;5.47;;;;;;;;;;6232084;28;20049;-79
2024/03/21 04:35:39;;;;;;;14.25;5.25;;;;;;;;;;6226856;28;20041;-79
2024/03/21 04:38:40;;;;;;;13.40;7.95;;;;;;;;;;6229333;28;20053;-79
2024/03/21 04:41:40;;;;;;;20.45;10.90;;;;;;;;;;6248737;28;20049;-79
2024/03/21 04:44:42;;;;;;;23.27;11.93;;;;;;;;;;6245260;28;20077;-79
2024/03/21 04:47:44;;;;;;;16.92;9.93;;;;;;;;;;6253228;28;20107;-80
2024/03/21 04:50:45;;;;;;;13.27;7.28;;;;;;;;;;6230678;28;20041;-79
2024/03/21 04:53:47;;;;;;;9.85;7.18;;;;;;;;;;6252700;28;20055;-79
2024/03/21 04:56:47;;;;;;;16.65;7.30;;;;;;;;;;6243798;28;20045;-79
2024/03/21 04:59:48;;;;;;;14.63;7.40;;;;;;;;;;6212152;28;22039;-79
2024/03/21 05:02:49;;;;;;;15.02;7.85;;;;;;;;;;6230118;28;20107;-79
2024/03/21 05:05:49;;;;;;;15.27;8.05;;;;;;;;;;6235390;28;25665;-79
2024/03/21 05:08:50;;;;;;;18.05;8.90;;;;;;;;;;6221171;28;20092;-79
2024/03/21 05:11:51;;;;;;;16.98;9.20;;;;;;;;;;6250824;28;20049;-81
2024/03/21 05:14:52;;;;;;;20.92;9.48;;;;;;;;;;6232173;28;20048;-81
2024/03/21 05:17:53;;;;;;;18.77;9.70;;;;;;;;;;6233668;28;20033;-80
2024/03/21 05:20:53;;;;;;;13.23;8.00;;;;;;;;;;6256493;28;20515;-81
2024/03/21 05:23:54;;;;;;;11.60;7.88;;;;;;;;;;6252097;28;20096;-81
2024/03/21 05:26:55;;;;;;;14.00;8.20;;;;;;;;;;6231112;28;20034;-81
2024/03/21 05:29:56;;;;;;;14.18;7.82;;;;;;;;;;6228662;28;20037;-81
2024/03/21 05:32:57;;;;;;;14.95;8.45;;;;;;;;;;6234917;28;20743;-80
2024/03/21 05:35:57;;;;;;;16.63;8.63;;;;;;;;;;6233445;28;20037;-80
2024/03/21 05:38:58;;;;;;;15.43;7.13;;;;;;;;;;6233343;28;20052;-83
2024/03/21 05:41:59;;;;;;;14.68;7.70;;;;;;;;;;6247767;28;20517;-82
2024/03/21 05:45:00;;;;;;;11.45;7.15;;;;;;;;;;6236926;28;20041;-82
2024/03/21 05:48:01;;;;;;;14.45;7.55;;;;;;;;;;6228572;28;20045;-82
2024/03/21 05:51:02;;;;;;;15.10;7.45;;;;;;;;;;6236837;28;20065;-82
2024/03/21 05:54:05;;;;;;;19.45;7.97;;;;;;;;;;6240437;28;20422;-82
2024/03/21 05:57:07;;;;;;;13.85;7.70;;;;;;;;;;6233032;28;20068;-82
2024/03/21 06:00:12;;;;;;;15.20;7.97;;;;;;;;;;6248272;28;20049;-82
2024/03/21 06:03:13;;;;;;;13.00;7.95;;;;;;;;;;6234994;28;20060;-82
2024/03/21 06:06:14;;;;;;;14.13;7.82;;;;;;;;;;6251109;28;20032;-82
2024/03/21 06:09:18;;;;;;;12.90;7.28;;;;;;;;;;6237276;28;20045;-82
2024/03/21 06:12:19;;;;;;;12.00;6.68;;;;;;;;;;6245477;28;20390;-82
2024/03/21 06:15:19;;;;;;;11.10;6.45;;;;;;;;;;6244257;28;20045;-82
2024/03/21 06:18:20;;;;;;;14.50;6.45;;;;;;;;;;6235618;28;20407;-82
2024/03/21 06:21:21;;;;;;;10.70;6.53;;;;;;;;;;6242801;28;20395;-82
2024/03/21 06:24:21;;;;;;;11.35;6.85;;;;;;;;;;6258509;28;20041;-83
2024/03/21 06:27:22;;;;;;;9.32;5.85;;;;;;;;;;6228111;28;20052;-82
2024/03/21 06:30:23;;;;;;;12.70;6.68;;;;;;;;;;6226130;28;20037;-83
2024/03/21 06:33:23;;;;;;;14.13;6.80;;;;;;;;;;6249824;28;20147;-82
2024/03/21 06:36:24;;;;;;;12.68;7.35;;;;;;;;;;6242658;28;20052;-82
2024/03/21 06:39:25;;;;;;;12.07;7.57;;;;;;;;;;6259170;28;20052;-82
2024/03/21 06:42:26;;;;;;;11.85;7.28;;;;;;;;;;6248810;28;20045;-82
2024/03/21 06:45:27;;;;;;;16.63;8.70;;;;;;;;;;6234743;28;20064;-82
2024/03/21 06:48:27;;;;;;;17.27;8.63;;;;;;;;;;6231500;28;20105;-82
2024/03/21 06:51:28;;;;;;;15.57;7.03;;;;;;;;;;6245500;28;20061;-82
2024/03/21 06:54:31;;;;;;;16.13;6.85;;;;;;;;;;6245671;28;20067;-82
2024/03/21 06:57:33;;;;;;;15.02;7.25;;;;;;;;;;6226112;28;20506;-83
2024/03/21 07:00:34;;;;;;;21.48;12.93;;;;;;;;;;6241890;28;20040;-82
2024/03/21 07:03:34;;;;;;;14.27;8.60;;;;;;;;;;6234944;28;20045;-82
2024/03/21 07:06:35;;;;;;;19.05;8.02;;;;;;;;;;6243003;28;20061;-82
2024/03/21 07:09:36;;;;;;;30.80;8.88;;;;;;;;;;6239217;28;20091;-82
2024/03/21 07:12:37;;;;;;;22.80;8.52;;;;;;;;;;6241584;28;20049;-82
2024/03/21 07:15:42;;;;;;;19.80;9.13;;;;;;;;;;6240916;28;20176;-82
2024/03/21 07:18:43;;;;;;;18.77;8.95;;;;;;;;;;6222471;28;20049;-83
2024/03/21 07:21:45;;;;;;;20.75;9.43;;;;;;;;;;6242546;28;20038;-83
2024/03/21 07:24:45;;;;;;;26.13;9.77;;;;;;;;;;6229549;28;20053;-82
2024/03/21 07:27:47;;;;;;;17.83;10.30;;;;;;;;;;6233830;28;20062;-83
2024/03/21 07:30:55;;;;;;;18.38;10.13;;;;;;;;;;6226521;28;20506;-83
2024/03/21 07:33:55;;;;;;;17.45;9.70;;;;;;;;;;6258279;28;20039;-83
2024/03/21 07:36:57;;;;;;;22.00;10.07;;;;;;;;;;6254905;28;20492;-84
2024/03/21 07:40:01;;;;;;;16.30;9.10;;;;;;;;;;6249531;28;20064;-83
2024/03/21 07:43:02;;;;;;;15.57;9.52;;;;;;;;;;6224200;28;20569;-83
2024/03/21 07:46:03;;;;;;;19.55;9.88;;;;;;;;;;6233954;28;20065;-84
2024/03/21 07:49:05;;;;;;;21.98;10.60;;;;;;;;;;6252771;28;20045;-83
2024/03/21 07:52:05;;;;;;;14.43;9.55;;;;;;;;;;6225186;28;20068;-83
2024/03/21 07:55:06;;;;;;;12.93;8.68;;;;;;;;;;6211441;28;20041;-83
2024/03/21 07:58:07;;;;;;;17.50;9.18;;;;;;;;;;6246164;28;20061;-83
2024/03/21 08:01:07;;;;;;;18.33;9.73;;;;;;;;;;6242867;28;20514;-83
2024/03/21 08:04:10;;;;;;;18.17;9.95;;;;;;;;;;6236462;28;20111;-83
2024/03/21 08:07:11;;;;;;;19.35;10.18;;;;;;;;;;6218862;28;20080;-83
2024/03/21 08:10:13;;;;;;;19.77;10.45;;;;;;;;;;6234300;28;20071;-83
2024/03/21 08:13:14;;;;;;;18.00;10.15;;;;;;;;;;6232333;28;20084;-83
2024/03/21 08:16:14;;;;;;;23.85;12.38;;;;;;;;;;6230112;28;20434;-82
2024/03/21 08:19:15;;;;;;;17.30;11.27;;;;;;;;;;6252180;28;20045;-83
2024/03/21 08:22:16;;;;;;;20.83;12.10;;;;;;;;;;6266915;28;20123;-83
2024/03/21 08:25:17;;;;;;;18.23;11.60;;;;;;;;;;6245390;28;20506;-83
2024/03/21 08:28:18;;;;;;;29.05;14.82;;;;;;;;;;6222660;28;20049;-82
2024/03/21 08:31:19;;;;;;;31.50;15.82;;;;;;;;;;6243013;28;20299;-82
2024/03/21 08:34:19;;;;;;;27.90;14.85;;;;;;;;;;6238500;28;20044;-82
2024/03/21 08:37:20;;;;;;;29.48;16.17;;;;;;;;;;6250875;28;20041;-83
2024/03/21 08:40:21;;;;;;;30.35;16.05;;;;;;;;;;6224661;28;20072;-82
2024/03/21 08:43:24;;;;;;;29.17;16.08;;;;;;;;;;6219584;28;20049;-82
2024/03/21 08:46:26;;;;;;;44.63;17.38;;;;;;;;;;6243361;28;20051;-81
2024/03/21 08:49:26;;;;;;;29.30;15.63;;;;;;;;;;6218106;28;20040;-82
2024/03/21 08:52:27;;;;;;;30.83;15.93;;;;;;;;;;6251221;28;20048;-83
2024/03/21 08:55:28;;;;;;;26.35;15.25;;;;;;;;;;6244625;28;20049;-82
2024/03/21 08:58:28;;;;;;;23.17;13.68;;;;;;;;;;6225835;28;20144;-82
2024/03/21 09:01:29;;;;;;;21.15;13.50;;;;;;;;;;6239634;28;20427;-83
2024/03/21 09:04:31;;;;;;;23.30;13.20;;;;;;;;;;6236314;28;20041;-83
2024/03/21 09:07:31;;;;;;;19.20;11.27;;;;;;;;;;6234015;28;20070;-83
2024/03/21 09:10:32;;;;;;;22.13;12.05;;;;;;;;;;6226263;28;20053;-83
2024/03/21 09:13:33;;;;;;;19.10;10.73;;;;;;;;;;6253298;28;20041;-82
2024/03/21 09:16:33;;;;;;;17.30;9.63;;;;;;;;;;6246462;28;20499;-83
2024/03/21 09:19:34;;;;;;;15.85;8.77;;;;;;;;;;6247972;28;20049;-84
2024/03/21 09:22:35;;;;;;;15.23;9.95;;;;;;;;;;6251252;28;20526;-82
2024/03/21 09:25:36;;;;;;;20.83;11.20;;;;;;;;;;6251049;28;20050;-84
2024/03/21 09:28:37;;;;;;;14.98;9.57;;;;;;;;;;6247730;28;20141;-84
2024/03/21 09:31:38;;;;;;;17.33;10.20;;;;;;;;;;6223348;28;20049;-83
2024/03/21 09:34:39;;;;;;;17.48;9.18;;;;;;;;;;6216784;28;20075;-83
2024/03/21 09:37:40;;;;;;;16.70;8.95;;;;;;;;;;6252510;28;20072;-83
2024/03/21 09:40:41;;;;;;;16.10;9.48;;;;;;;;;;6219856;28;20529;-83
2024/03/21 09:43:43;;;;;;;16.92;9.43;;;;;;;;;;6262369;28;20049;-83
2024/03/21 09:46:45;;;;;;;15.25;8.07;;;;;;;;;;6254680;28;20037;-83
2024/03/21 09:49:47;;;;;;;15.50;8.77;;;;;;;;;;6246103;28;20037;-82
2024/03/21 09:52:49;;;;;;;18.25;9.10;;;;;;;;;;6260879;28;20056;-83
2024/03/21 09:55:52;;;;;;;16.08;8.63;;;;;;;;;;6242198;28;20044;-83
2024/03/21 09:58:53;;;;;;;15.68;9.45;;;;;;;;;;6253667;28;20041;-83
2024/03/21 10:01:54;;;;;;;19.85;9.52;;;;;;;;;;6243663;28;20049;-83
2024/03/21 10:04:55;;;;;;;15.73;8.52;;;;;;;;;;6262733;28;20038;-82
2024/03/21 10:07:56;;;;;;;14.80;8.50;;;;;;;;;;6225356;28;20047;-82
2024/03/21 10:10:58;;;;;;;15.25;7.82;;;;;;;;;;6234871;28;20068;-82
2024/03/21 10:14:00;;;;;;;13.45;7.82;;;;;;;;;;6250357;28;20414;-82
2024/03/21 10:17:03;;;;;;;15.18;7.93;;;;;;;;;;6230736;28;20064;-82
2024/03/21 10:20:04;;;;;;;15.35;7.60;;;;;;;;;;6257526;28;20052;-82
2024/03/21 10:23:14;;;;;;;13.25;7.90;;;;;;;;;;6258894;28;20056;-83
2024/03/21 10:26:17;;;;;;;11.05;6.82;;;;;;;;;;6260593;28;20041;-82
2024/03/21 10:29:19;;;;;;;10.75;6.95;;;;;;;;;;6265458;28;20036;-82
2024/03/21 10:32:21;;;;;;;14.27;7.60;;;;;;;;;;6222590;28;20499;-81
2024/03/21 10:35:22;;;;;;;13.10;7.55;;;;;;;;;;6246958;28;20045;-81
2024/03/21 10:38:23;;;;;;;12.27;7.60;;;;;;;;;;6241832;28;20458;-82
2024/03/21 10:41:25;;;;;;;15.77;7.78;;;;;;;;;;6235688;28;20041;-82
2024/03/21 10:44:27;;;;;;;17.52;9.05;;;;;;;;;;6250863;28;20053;-82
2024/03/21 10:47:29;;;;;;;13.02;8.05;;;;;;;;;;6263933;28;20064;-82
2024/03/21 10:50:30;;;;;;;14.18;7.95;;;;;;;;;;6227952;28;20080;-82
2024/03/21 10:53:30;;;;;;;13.13;7.53;;;;;;;;;;6243875;28;20041;-82
2024/03/21 10:56:40;;;;;;;14.10;8.65;;;;;;;;;;6247563;28;20053;-82
2024/03/21 10:59:54;;;;;;;17.60;10.43;;;;;;;;;;6258463;28;20045;-82
2024/03/21 11:02:55;;;;;;;18.95;9.80;;;;;;;;;;6239825;28;20051;-83
2024/03/21 11:05:56;;;;;;;17.17;9.98;;;;;;;;;;6256053;28;20041;-84
2024/03/21 11:08:57;;;;;;;16.30;9.52;;;;;;;;;;6244041;28;20041;-83
2024/03/21 11:11:58;;;;;;;18.02;10.50;;;;;;;;;;6251008;28;20410;-83
2024/03/21 11:14:59;;;;;;;15.10;9.65;;;;;;;;;;6254734;28;20072;-82
2024/03/21 11:18:01;;;;;;;16.00;9.52;;;;;;;;;;6263122;28;20064;-82
2024/03/21 11:21:01;;;;;;;14.52;8.23;;;;;;;;;;6259095;28;20045;-81
2024/03/21 11:24:02;;;;;;;16.65;8.85;;;;;;;;;;6236155;28;20052;-83
2024/03/21 11:27:05;;;;;;;17.20;9.93;;;;;;;;;;6257019;28;20132;-83
2024/03/21 11:30:08;;;;;;;16.77;9.73;;;;;;;;;;6254252;28;20044;-82
2024/03/21 11:33:09;;;;;;;;;;;;;;;;;;6241029;28;20390;-82
2024/03/21 11:36:10;;;;;;;17.67;9.88;;;;;;;;;;6252192;28;20039;-81
2024/03/21 11:39:14;;;;;;;18.92;10.23;;;;;;;;;;6240163;28;20037;-83
2024/03/21 11:42:17;;;;;;;20.50;10.45;;;;;;;;;;6250391;28;20395;-82
2024/03/21 11:45:19;;;;;;;;;;;;;;;;;;6232237;28;20071;-83
2024/03/21 11:48:24;;;;;;;17.63;9.20;;;;;;;;;;6234181;28;19925;-83
2024/03/21 11:51:25;;;;;;;17.73;9.38;;;;;;;;;;6252047;28;20127;-83
2024/03/21 11:54:26;;;;;;;11.35;6.20;;;;;;;;;;6255979;28;20099;-83
2024/03/21 11:57:26;;;;;;;8.45;6.45;;;;;;;;;;6251500;28;20073;-82
2024/03/21 12:00:27;;;;;;;10.10;5.63;;;;;;;;;;6238963;28;20064;-83
2024/03/21 12:03:28;;;;;;;9.82;6.13;;;;;;;;;;6251791;28;20087;-83
2024/03/21 12:06:29;;;;;;;9.77;5.70;;;;;;;;;;6251637;28;20049;-83
2024/03/21 12:09:30;;;;;;;9.77;5.13;;;;;;;;;;6259382;28;20041;-84
2024/03/21 12:12:30;;;;;;;7.85;4.70;;;;;;;;;;6268809;28;20049;-85
2024/03/21 12:15:31;;;;;;;6.90;4.30;;;;;;;;;;6243506;28;20037;-83
2024/03/21 12:18:32;;;;;;;5.97;4.30;;;;;;;;;;6264642;28;20095;-88
2024/03/21 12:21:33;;;;;;;5.10;3.47;;;;;;;;;;6276205;28;20041;-85
2024/03/21 12:24:34;;;;;;;5.38;3.90;;;;;;;;;;6260819;28;20065;-82
2024/03/21 12:27:35;;;;;;;5.55;3.95;;;;;;;;;;6269696;28;20057;-86
2024/03/21 12:30:37;;;;;;;6.70;3.55;;;;;;;;;;6242243;28;20049;-82
2024/03/21 12:33:39;;;;;;;5.22;4.00;;;;;;;;;;6228361;28;20045;-83
2024/03/21 12:36:40;;;;;;;5.55;4.10;;;;;;;;;;6242828;28;20052;-83
2024/03/21 12:39:42;;;;;;;4.47;3.53;;;;;;;;;;6248729;28;20052;-83
2024/03/21 12:42:43;;;;;;;5.90;3.70;;;;;;;;;;6215531;28;20053;-84
2024/03/21 12:45:45;;;;;;;4.55;3.75;;;;;;;;;;6238565;28;20052;-85
2024/03/21 12:48:47;;;;;;;7.18;3.75;;;;;;;;;;6232124;28;20045;-84
2024/03/21 12:51:48;;;;;;;7.10;4.32;;;;;;;;;;6229623;28;20041;-84
2024/03/21 12:54:50;;;;;;;5.50;4.00;;;;;;;;;;6247940;28;20415;-83
2024/03/21 12:57:52;;;;;;;6.78;4.65;;;;;;;;;;6215259;28;20080;-83
2024/03/21 13:00:53;;;;;;;6.20;3.70;;;;;;;;;;6238436;28;20048;-83
2024/03/21 13:03:53;;;;;;;5.70;3.70;;;;;;;;;;6246059;28;20045;-82
2024/03/21 13:06:54;;;;;;;5.55;3.75;;;;;;;;;;6228270;28;20075;-85
2024/03/21 13:09:55;;;;;;;5.63;3.72;;;;;;;;;;6245255;28;20036;-83
2024/03/21 13:12:55;;;;;;;4.63;3.28;;;;;;;;;;6238390;28;20116;-82
2024/03/21 13:15:56;;;;;;;5.80;3.38;;;;;;;;;;6245660;28;20534;-82
2024/03/21 13:18:57;;;;;;;5.38;3.90;;;;;;;;;;6251523;28;20040;-82
2024/03/21 13:21:59;;;;;;;4.28;3.15;;;;;;;;;;6246004;28;20037;-83
2024/03/21 13:24:59;;;;;;;5.80;3.35;;;;;;;;;;6235934;28;20052;-83
2024/03/21 13:28:00;;;;;;;5.32;3.13;;;;;;;;;;6248056;28;20049;-83
2024/03/21 13:31:03;;;;;;;5.13;4.10;;;;;;;;;;6235430;28;20045;-83
2024/03/21 13:34:04;;;;;;;9.15;4.45;;;;;;;;;;6243097;28;20038;-83
2024/03/21 13:37:05;;;;;;;9.30;4.20;;;;;;;;;;6217525;28;20041;-83
2024/03/21 13:40:06;;;;;;;7.22;4.78;;;;;;;;;;6232566;28;20517;-85
2024/03/21 13:43:07;;;;;;;11.93;5.85;;;;;;;;;;6233620;28;20422;-83
2024/03/21 13:46:09;;;;;;;10.75;6.00;;;;;;;;;;6229888;28;20041;-88
2024/03/21 13:49:10;;;;;;;13.85;7.43;;;;;;;;;;6237271;28;20578;-83
2024/03/21 13:52:11;;;;;;;10.10;5.97;;;;;;;;;;6234229;28;20041;-83
2024/03/21 13:55:12;;;;;;;8.93;5.57;;;;;;;;;;6223709;28;20048;-83
2024/03/21 13:58:13;;;;;;;9.52;4.38;;;;;;;;;;6229375;28;20056;-87
2024/03/21 14:01:13;;;;;;;8.10;4.88;;;;;;;;;;6239609;28;20038;-82
2024/03/21 14:04:15;;;;;;;8.20;4.88;;;;;;;;;;6257894;28;20056;-83
2024/03/21 14:07:15;;;;;;;7.07;4.50;;;;;;;;;;6239931;28;20034;-82
2024/03/21 14:10:16;;;;;;;7.95;4.15;;;;;;;;;;6240346;28;20082;-83
2024/03/21 14:13:19;;;;;;;7.85;4.72;;;;;;;;;;6266200;28;20052;-83
2024/03/21 14:16:20;;;;;;;8.20;4.95;;;;;;;;;;6238955;28;20049;-82
2024/03/21 14:19:21;;;;;;;8.55;5.45;;;;;;;;;;6253205;28;20096;-83
2024/03/21 14:22:22;;;;;;;10.85;5.75;;;;;;;;;;6252117;28;20041;-83
2024/03/21 14:25:23;;;;;;;12.93;6.55;;;;;;;;;;6266437;28;20045;-82
2024/03/21 14:28:24;;;;;;;14.82;7.70;;;;;;;;;;6245961;28;21477;-82
2024/03/21 14:31:24;;;;;;;13.48;7.80;;;;;;;;;;6248888;28;20041;-83
2024/03/21 14:34:25;;;;;;;12.80;7.78;;;;;;;;;;6242278;28;20044;-81
2024/03/21 14:37:27;;;;;;;16.10;8.77;;;;;;;;;;6247395;28;20115;-81
2024/03/21 14:40:28;;;;;;;15.23;8.48;;;;;;;;;;6226048;28;20048;-82
2024/03/21 14:43:29;;;;;;;13.65;7.15;;;;;;;;;;6238999;28;20128;-83
2024/03/21 14:46:29;;;;;;;12.07;7.38;;;;;;;;;;6247793;28;20097;-83
2024/03/21 14:49:30;;;;;;;13.98;7.53;;;;;;;;;;6241403;28;20100;-83
2024/03/21 14:52:31;;;;;;;13.98;8.02;;;;;;;;;;6251074;28;20045;-85
2024/03/21 14:55:33;;;;;;;15.10;7.95;;;;;;;;;;6250649;28;20053;-82
2024/03/21 14:58:33;;;;;;;12.73;6.90;;;;;;;;;;6249273;28;20517;-84
2024/03/21 15:01:35;;;;;;;15.75;8.43;;;;;;;;;;6252609;28;20056;-83
2024/03/21 15:04:36;;;;;;;14.40;8.65;;;;;;;;;;6240724;28;20044;-83
2024/03/21 15:07:37;;;;;;;16.25;8.85;;;;;;;;;;6242298;28;20051;-83
2024/03/21 15:10:39;;;;;;;14.98;8.02;;;;;;;;;;6249535;28;20414;-82
2024/03/21 15:13:40;;;;;;;12.90;7.45;;;;;;;;;;6253710;28;20060;-83
2024/03/21 15:16:41;;;;;;;12.35;7.65;;;;;;;;;;6252722;28;20045;-84
2024/03/21 15:19:42;;;;;;;14.90;8.43;;;;;;;;;;6225613;28;20038;-84
2024/03/21 15:22:42;;;;;;;14.10;7.35;;;;;;;;;;6228327;28;20033;-82
2024/03/21 15:25:43;;;;;;;14.10;7.30;;;;;;;;;;6245325;28;20056;-82
2024/03/21 15:28:44;;;;;;;13.95;7.30;;;;;;;;;;6249421;28;20105;-84
2024/03/21 15:31:45;;;;;;;13.13;7.60;;;;;;;;;;6257166;28;20076;-84
2024/03/21 15:34:46;;;;;;;11.65;6.57;;;;;;;;;;6256228;28;20033;-84
2024/03/21 15:37:47;;;;;;;12.45;7.22;;;;;;;;;;6243401;28;20045;-88
2024/03/21 15:40:47;;;;;;;12.32;7.88;;;;;;;;;;6242083;28;20506;-85
2024/03/21 15:43:48;;;;;;;15.82;8.95;;;;;;;;;;6220275;28;20041;-83
2024/03/21 15:46:49;;;;;;;14.18;8.30;;;;;;;;;;6219175;28;20049;-83
2024/03/21 15:49:49;;;;;;;19.80;10.27;;;;;;;;;;6216591;28;20045;-83
2024/03/21 15:52:50;;;;;;;17.20;10.25;;;;;;;;;;6237716;28;22386;-82
2024/03/21 15:55:51;;;;;;;20.85;12.27;;;;;;;;;;6229110;28;20078;-82
2024/03/21 15:58:52;;;;;;;16.48;9.63;;;;;;;;;;6250682;28;20042;-83
2024/03/21 16:01:52;;;;;;;16.10;10.20;;;;;;;;;;6231459;28;20565;-84
2024/03/21 16:04:53;;;;;;;16.95;9.43;;;;;;;;;;6252206;28;20048;-82
2024/03/21 16:07:55;;;;;;;17.75;9.93;;;;;;;;;;6251426;28;20120;-82
2024/03/21 16:10:56;;;;;;;19.25;10.60;;;;;;;;;;6254695;28;20072;-83
2024/03/21 16:13:57;;;;;;;18.73;10.18;;;;;;;;;;6253703;28;20041;-82
2024/03/21 16:16:57;;;;;;;19.80;10.18;;;;;;;;;;6238067;28;20045;-82
2024/03/21 16:19:58;;;;;;;19.95;10.88;;;;;;;;;;6255959;28;20076;-83
2024/03/21 16:22:59;;;;;;;17.88;9.75;;;;;;;;;;6222872;28;20579;-83
2024/03/21 16:26:00;;;;;;;18.20;9.80;;;;;;;;;;6252170;28;20135;-83
2024/03/21 16:29:01;;;;;;;19.30;10.50;;;;;;;;;;6251674;28;20049;-82
2024/03/21 16:32:02;;;;;;;19.90;10.35;;;;;;;;;;6231519;28;20041;-82
2024/03/21 16:35:04;;;;;;;21.70;9.95;;;;;;;;;;6253602;28;20045;-85
2024/03/21 16:38:04;;;;;;;19.20;9.65;;;;;;;;;;6254222;28;20049;-82
2024/03/21 16:41:07;;;;;;;15.90;8.32;;;;;;;;;;6236045;28;20412;-82
2024/03/21 16:44:08;;;;;;;18.48;8.50;;;;;;;;;;6237682;28;20045;-84
2024/03/21 16:47:09;;;;;;;16.02;8.23;;;;;;;;;;6222428;28;20041;-82
2024/03/21 16:50:09;;;;;;;13.70;7.30;;;;;;;;;;6222062;28;20085;-82
2024/03/21 16:53:10;;;;;;;14.45;6.50;;;;;;;;;;6238800;28;20041;-82
2024/03/21 16:56:11;;;;;;;12.48;6.57;;;;;;;;;;6221131;28;20052;-82
2024/03/21 16:59:11;;;;;;;23.33;14.82;;;;;;;;;;6237949;28;20128;-82
2024/03/21 17:02:12;;;;;;;12.48;6.70;;;;;;;;;;6250042;28;20106;-81
2024/03/21 17:05:13;;;;;;;11.90;6.35;;;;;;;;;;6237284;28;20148;-81
2024/03/21 17:08:14;;;;;;;10.15;5.82;;;;;;;;;;6235220;28;20041;-85
2024/03/21 17:11:16;;;;;;;10.90;5.63;;;;;;;;;;6237630;28;20079;-82
2024/03/21 17:14:16;;;;;;;12.15;6.55;;;;;;;;;;6236825;28;20062;-83
2024/03/21 17:17:18;;;;;;;12.07;6.07;;;;;;;;;;6253148;28;20044;-82
2024/03/21 17:20:18;;;;;;;9.57;5.15;;;;;;;;;;6238704;28;20063;-83
2024/03/21 17:23:23;;;;;;;9.88;5.35;;;;;;;;;;6235264;28;20124;-83
2024/03/21 17:26:23;;;;;;;8.75;5.10;;;;;;;;;;6213668;28;20066;-82
2024/03/21 17:29:26;;;;;;;11.23;6.07;;;;;;;;;;6234938;28;20052;-84
2024/03/21 17:32:28;;;;;;;10.20;6.25;;;;;;;;;;6238196;28;20053;-82
2024/03/21 17:35:30;;;;;;;8.27;5.05;;;;;;;;;;6254396;28;20041;-82
2024/03/21 17:38:31;;;;;;;9.00;4.97;;;;;;;;;;6219470;28;20045;-82
2024/03/21 17:41:31;;;;;;;8.77;5.00;;;;;;;;;;6236066;28;20037;-82
2024/03/21 17:44:32;;;;;;;9.68;5.18;;;;;;;;;;6236697;28;20415;-82
2024/03/21 17:47:33;;;;;;;16.88;8.25;;;;;;;;;;6250758;28;20041;-81
2024/03/21 17:50:33;;;;;;;7.70;4.72;;;;;;;;;;6190410;23;20042;-84
2024/03/21 17:53:34;;;;;;;9.50;4.80;;;;;;;;;;6107902;28;20053;-85
2024/03/21 17:56:37;;;;;;;9.50;4.82;;;;;;;;;;6168949;28;20046;-84